sensor_id;sensor_type;location;lat;lon;timestamp;temperature;humidity
78076;DHT22;67714;52.546;13.422;2023-02-15T00:00:19;5.8;90.1
78076;DHT22;67714;52.546;13.422;2023-02-15T00:02:20;5.8;90.2
78076;DHT22;67714;52.546;13.422;2023-02-15T00:04:23;5.7;90.1
78076;DHT22;67714;52.546;13.422;2023-02-15T00:06:25;5.6;90.5
78076;DHT22;67714;52.546;13.422;2023-02-15T00:08:26;5.5;90.9
78076;DHT22;67714;52.546;13.422;2023-02-15T00:10:27;5.4;91.6
78076;DHT22;67714;52.546;13.422;2023-02-15T00:12:29;5.3;92.1
78076;DHT22;67714;52.546;13.422;2023-02-15T00:14:30;5.3;91.9
78076;DHT22;67714;52.546;13.422;2023-02-15T00:16:31;5.2;92.2
78076;DHT22;67714;52.546;13.422;2023-02-15T00:18:33;5.1;92.6
78076;DHT22;67714;52.546;13.422;2023-02-15T00:20:34;5.1;93.3
78076;DHT22;67714;52.546;13.422;2023-02-15T00:22:35;5;93.7
78076;DHT22;67714;52.546;13.422;2023-02-15T00:24:37;5;94
78076;DHT22;67714;52.546;13.422;2023-02-15T00:26:39;5;94.2
78076;DHT22;67714;52.546;13.422;2023-02-15T00:28:40;4.9;94.4
78076;DHT22;67714;52.546;13.422;2023-02-15T00:30:41;4.9;94.5
78076;DHT22;67714;52.546;13.422;2023-02-15T00:32:43;4.9;94.7
78076;DHT22;67714;52.546;13.422;2023-02-15T00:34:44;4.9;95
78076;DHT22;67714;52.546;13.422;2023-02-15T00:36:45;4.9;94.8
78076;DHT22;67714;52.546;13.422;2023-02-15T00:38:47;4.9;94.9
78076;DHT22;67714;52.546;13.422;2023-02-15T00:40:51;4.8;94.8
78076;DHT22;67714;52.546;13.422;2023-02-15T00:42:52;4.8;95
78076;DHT22;67714;52.546;13.422;2023-02-15T00:44:54;4.8;95.3
78076;DHT22;67714;52.546;13.422;2023-02-15T00:46:55;4.7;95.4
78076;DHT22;67714;52.546;13.422;2023-02-15T00:48:56;4.7;95.6
78076;DHT22;67714;52.546;13.422;2023-02-15T00:50:59;4.7;95.9
78076;DHT22;67714;52.546;13.422;2023-02-15T00:53:00;4.6;96.1
78076;DHT22;67714;52.546;13.422;2023-02-15T00:55:01;4.6;96.3
78076;DHT22;67714;52.546;13.422;2023-02-15T00:57:03;4.6;96.6
78076;DHT22;67714;52.546;13.422;2023-02-15T00:59:04;4.6;96.5
78076;DHT22;67714;52.546;13.422;2023-02-15T01:01:08;4.5;96.8
78076;DHT22;67714;52.546;13.422;2023-02-15T01:03:10;4.5;97.2
78076;DHT22;67714;52.546;13.422;2023-02-15T01:05:11;4.5;97.2
78076;DHT22;67714;52.546;13.422;2023-02-15T01:07:12;4.4;97.3
78076;DHT22;67714;52.546;13.422;2023-02-15T01:09:14;4.4;97.3
78076;DHT22;67714;52.546;13.422;2023-02-15T01:11:17;4.3;97.5
78076;DHT22;67714;52.546;13.422;2023-02-15T01:13:18;4.3;97.8
78076;DHT22;67714;52.546;13.422;2023-02-15T01:15:21;4.4;97.8
78076;DHT22;67714;52.546;13.422;2023-02-15T01:17:22;4.4;97.8
78076;DHT22;67714;52.546;13.422;2023-02-15T01:19:24;4.5;97.7
78076;DHT22;67714;52.546;13.422;2023-02-15T01:21:26;4.5;97.3
78076;DHT22;67714;52.546;13.422;2023-02-15T01:23:27;4.5;97.1
78076;DHT22;67714;52.546;13.422;2023-02-15T01:25:28;4.5;97
78076;DHT22;67714;52.546;13.422;2023-02-15T01:27:29;4.4;97.3
78076;DHT22;67714;52.546;13.422;2023-02-15T01:29:31;4.4;97.6
78076;DHT22;67714;52.546;13.422;2023-02-15T01:31:32;4.4;97.5
78076;DHT22;67714;52.546;13.422;2023-02-15T01:33:34;4.3;97.6
78076;DHT22;67714;52.546;13.422;2023-02-15T01:35:36;4.3;97.9
78076;DHT22;67714;52.546;13.422;2023-02-15T01:37:37;4.2;98.1
78076;DHT22;67714;52.546;13.422;2023-02-15T01:39:39;4.2;98.1
78076;DHT22;67714;52.546;13.422;2023-02-15T01:41:40;4.2;98.3
78076;DHT22;67714;52.546;13.422;2023-02-15T01:43:43;4.2;98.6
78076;DHT22;67714;52.546;13.422;2023-02-15T01:45:45;4.1;98.6
78076;DHT22;67714;52.546;13.422;2023-02-15T01:47:50;4.1;98.9
78076;DHT22;67714;52.546;13.422;2023-02-15T01:49:58;4.1;99
78076;DHT22;67714;52.546;13.422;2023-02-15T01:52:01;4.1;98.9
78076;DHT22;67714;52.546;13.422;2023-02-15T01:54:07;4;99.1
78076;DHT22;67714;52.546;13.422;2023-02-15T01:56:12;4;98.9
78076;DHT22;67714;52.546;13.422;2023-02-15T01:58:16;4;99.3
78076;DHT22;67714;52.546;13.422;2023-02-15T02:00:18;4;99.2
78076;DHT22;67714;52.546;13.422;2023-02-15T02:02:20;3.9;99.2
78076;DHT22;67714;52.546;13.422;2023-02-15T02:04:24;3.9;99.5
78076;DHT22;67714;52.546;13.422;2023-02-15T02:06:27;3.9;99.8
78076;DHT22;67714;52.546;13.422;2023-02-15T02:08:29;3.9;100
78076;DHT22;67714;52.546;13.422;2023-02-15T02:10:30;4;100
78076;DHT22;67714;52.546;13.422;2023-02-15T02:12:32;4.1;99.7
78076;DHT22;67714;52.546;13.422;2023-02-15T02:14:34;4.2;99.2
78076;DHT22;67714;52.546;13.422;2023-02-15T02:16:40;4.2;98.7
78076;DHT22;67714;52.546;13.422;2023-02-15T02:18:48;4.2;98.4
78076;DHT22;67714;52.546;13.422;2023-02-15T02:21:02;4.3;98
78076;DHT22;67714;52.546;13.422;2023-02-15T02:23:30;4.3;97.8
78076;DHT22;67714;52.546;13.422;2023-02-15T02:25:49;4.3;97.9
78076;DHT22;67714;52.546;13.422;2023-02-15T02:28:00;4.3;97.7
78076;DHT22;67714;52.546;13.422;2023-02-15T02:30:19;4.2;97.8
78076;DHT22;67714;52.546;13.422;2023-02-15T02:33:07;4.2;97.8
78076;DHT22;67714;52.546;13.422;2023-02-15T02:35:14;4.1;98
78076;DHT22;67714;52.546;13.422;2023-02-15T02:37:21;4.1;98.2
78076;DHT22;67714;52.546;13.422;2023-02-15T02:39:29;4.1;98.4
78076;DHT22;67714;52.546;13.422;2023-02-15T02:41:38;4.1;98.1
78076;DHT22;67714;52.546;13.422;2023-02-15T02:43:47;4;98.5
78076;DHT22;67714;52.546;13.422;2023-02-15T02:45:53;4;98.5
78076;DHT22;67714;52.546;13.422;2023-02-15T02:47:59;4;98.7
78076;DHT22;67714;52.546;13.422;2023-02-15T02:50:04;4.1;98.5
78076;DHT22;67714;52.546;13.422;2023-02-15T02:52:31;4.1;98.4
78076;DHT22;67714;52.546;13.422;2023-02-15T02:54:35;4;98.3
78076;DHT22;67714;52.546;13.422;2023-02-15T02:56:39;4;98.4
78076;DHT22;67714;52.546;13.422;2023-02-15T02:58:45;4;98.2
78076;DHT22;67714;52.546;13.422;2023-02-15T03:00:50;4;98.5
78076;DHT22;67714;52.546;13.422;2023-02-15T03:02:59;4;98.5
78076;DHT22;67714;52.546;13.422;2023-02-15T03:05:03;4;98.5
78076;DHT22;67714;52.546;13.422;2023-02-15T03:07:07;4;98.5
78076;DHT22;67714;52.546;13.422;2023-02-15T03:09:12;4;98.6
78076;DHT22;67714;52.546;13.422;2023-02-15T03:11:15;3.9;98.7
78076;DHT22;67714;52.546;13.422;2023-02-15T03:13:17;4;98.7
78076;DHT22;67714;52.546;13.422;2023-02-15T03:15:20;4;98.7
78076;DHT22;67714;52.546;13.422;2023-02-15T03:17:25;3.9;98.6
78076;DHT22;67714;52.546;13.422;2023-02-15T03:19:29;3.9;98.8
78076;DHT22;67714;52.546;13.422;2023-02-15T03:21:34;3.9;98.9
78076;DHT22;67714;52.546;13.422;2023-02-15T03:23:38;3.9;98.8
78076;DHT22;67714;52.546;13.422;2023-02-15T03:25:42;3.9;98.6
78076;DHT22;67714;52.546;13.422;2023-02-15T03:27:45;3.9;98.5
78076;DHT22;67714;52.546;13.422;2023-02-15T03:29:50;3.9;98.5
78076;DHT22;67714;52.546;13.422;2023-02-15T03:31:54;3.9;98.5
78076;DHT22;67714;52.546;13.422;2023-02-15T03:33:59;3.8;98.4
78076;DHT22;67714;52.546;13.422;2023-02-15T03:36:04;3.8;98.6
78076;DHT22;67714;52.546;13.422;2023-02-15T03:38:10;3.8;98.6
78076;DHT22;67714;52.546;13.422;2023-02-15T03:40:18;3.7;98.9
78076;DHT22;67714;52.546;13.422;2023-02-15T03:42:25;3.7;98.9
78076;DHT22;67714;52.546;13.422;2023-02-15T03:44:29;3.7;98.9
78076;DHT22;67714;52.546;13.422;2023-02-15T03:46:32;3.7;98.7
78076;DHT22;67714;52.546;13.422;2023-02-15T03:48:36;3.6;99.2
78076;DHT22;67714;52.546;13.422;2023-02-15T03:50:38;3.6;99.3
78076;DHT22;67714;52.546;13.422;2023-02-15T03:52:40;3.6;99.6
78076;DHT22;67714;52.546;13.422;2023-02-15T03:54:43;3.5;99.5
78076;DHT22;67714;52.546;13.422;2023-02-15T03:56:44;3.5;99.5
78076;DHT22;67714;52.546;13.422;2023-02-15T03:58:45;3.5;99.7
78076;DHT22;67714;52.546;13.422;2023-02-15T04:00:52;3.5;99.8
78076;DHT22;67714;52.546;13.422;2023-02-15T04:03:04;3.5;99.9
78076;DHT22;67714;52.546;13.422;2023-02-15T04:05:07;3.5;99.5
78076;DHT22;67714;52.546;13.422;2023-02-15T04:07:09;3.5;99.6
78076;DHT22;67714;52.546;13.422;2023-02-15T04:09:11;3.4;99.5
78076;DHT22;67714;52.546;13.422;2023-02-15T04:11:13;3.4;99.5
78076;DHT22;67714;52.546;13.422;2023-02-15T04:13:14;3.4;99.5
78076;DHT22;67714;52.546;13.422;2023-02-15T04:15:16;3.3;99.6
78076;DHT22;67714;52.546;13.422;2023-02-15T04:17:17;3.3;99.7
78076;DHT22;67714;52.546;13.422;2023-02-15T04:19:18;3.3;99.7
78076;DHT22;67714;52.546;13.422;2023-02-15T04:21:21;3.2;100
78076;DHT22;67714;52.546;13.422;2023-02-15T04:23:22;3.2;100
78076;DHT22;67714;52.546;13.422;2023-02-15T04:25:23;3.2;100
78076;DHT22;67714;52.546;13.422;2023-02-15T04:27:25;3.2;100
78076;DHT22;67714;52.546;13.422;2023-02-15T04:29:27;3.1;100
78076;DHT22;67714;52.546;13.422;2023-02-15T04:31:29;3.1;100
78076;DHT22;67714;52.546;13.422;2023-02-15T04:33:30;3.1;100
78076;DHT22;67714;52.546;13.422;2023-02-15T04:35:31;3;100
78076;DHT22;67714;52.546;13.422;2023-02-15T04:37:33;3;100
78076;DHT22;67714;52.546;13.422;2023-02-15T04:39:34;3;100
78076;DHT22;67714;52.546;13.422;2023-02-15T04:41:35;2.9;100
78076;DHT22;67714;52.546;13.422;2023-02-15T04:43:37;2.9;100
78076;DHT22;67714;52.546;13.422;2023-02-15T04:45:38;2.9;100
78076;DHT22;67714;52.546;13.422;2023-02-15T04:47:40;2.9;100
78076;DHT22;67714;52.546;13.422;2023-02-15T04:49:41;2.9;100
78076;DHT22;67714;52.546;13.422;2023-02-15T04:51:43;2.8;100
78076;DHT22;67714;52.546;13.422;2023-02-15T04:53:44;2.8;100
78076;DHT22;67714;52.546;13.422;2023-02-15T04:55:45;2.8;100
78076;DHT22;67714;52.546;13.422;2023-02-15T04:57:46;2.8;100
78076;DHT22;67714;52.546;13.422;2023-02-15T04:59:48;2.8;100
78076;DHT22;67714;52.546;13.422;2023-02-15T05:01:49;2.8;100
78076;DHT22;67714;52.546;13.422;2023-02-15T05:03:50;2.8;100
78076;DHT22;67714;52.546;13.422;2023-02-15T05:05:52;2.8;100
78076;DHT22;67714;52.546;13.422;2023-02-15T05:07:53;2.8;99.9
78076;DHT22;67714;52.546;13.422;2023-02-15T05:09:55;2.8;100
78076;DHT22;67714;52.546;13.422;2023-02-15T05:11:56;2.8;99.9
78076;DHT22;67714;52.546;13.422;2023-02-15T05:13:57;2.8;99.8
78076;DHT22;67714;52.546;13.422;2023-02-15T05:15:58;2.8;99.4
78076;DHT22;67714;52.546;13.422;2023-02-15T05:18:00;2.7;99.7
78076;DHT22;67714;52.546;13.422;2023-02-15T05:20:01;2.7;99.4
78076;DHT22;67714;52.546;13.422;2023-02-15T05:22:02;2.7;99.6
78076;DHT22;67714;52.546;13.422;2023-02-15T05:24:04;2.6;99.5
78076;DHT22;67714;52.546;13.422;2023-02-15T05:26:16;2.6;99.7
78076;DHT22;67714;52.546;13.422;2023-02-15T05:28:18;2.6;100
78076;DHT22;67714;52.546;13.422;2023-02-15T05:30:19;2.5;100
78076;DHT22;67714;52.546;13.422;2023-02-15T05:32:21;2.5;100
78076;DHT22;67714;52.546;13.422;2023-02-15T05:34:22;2.5;100
78076;DHT22;67714;52.546;13.422;2023-02-15T05:36:23;2.5;100
78076;DHT22;67714;52.546;13.422;2023-02-15T05:38:25;2.5;100
78076;DHT22;67714;52.546;13.422;2023-02-15T05:40:26;2.6;100
78076;DHT22;67714;52.546;13.422;2023-02-15T05:42:27;2.5;100
78076;DHT22;67714;52.546;13.422;2023-02-15T05:44:29;2.6;100
78076;DHT22;67714;52.546;13.422;2023-02-15T05:46:30;2.6;100
78076;DHT22;67714;52.546;13.422;2023-02-15T05:48:32;2.6;100
78076;DHT22;67714;52.546;13.422;2023-02-15T05:50:33;2.7;100
78076;DHT22;67714;52.546;13.422;2023-02-15T05:52:35;2.7;100
78076;DHT22;67714;52.546;13.422;2023-02-15T05:54:36;2.7;100
78076;DHT22;67714;52.546;13.422;2023-02-15T05:56:37;2.8;100
78076;DHT22;67714;52.546;13.422;2023-02-15T05:58:40;2.8;100
78076;DHT22;67714;52.546;13.422;2023-02-15T06:00:42;2.8;99.8
78076;DHT22;67714;52.546;13.422;2023-02-15T06:02:43;2.9;99.9
78076;DHT22;67714;52.546;13.422;2023-02-15T06:04:44;2.9;100
78076;DHT22;67714;52.546;13.422;2023-02-15T06:06:45;2.9;100
78076;DHT22;67714;52.546;13.422;2023-02-15T06:08:47;2.9;100
78076;DHT22;67714;52.546;13.422;2023-02-15T06:10:48;2.9;100
78076;DHT22;67714;52.546;13.422;2023-02-15T06:12:50;3;99.7
78076;DHT22;67714;52.546;13.422;2023-02-15T06:14:51;3;99.4
78076;DHT22;67714;52.546;13.422;2023-02-15T06:16:52;3;99.5
78076;DHT22;67714;52.546;13.422;2023-02-15T06:18:53;3.1;99.4
78076;DHT22;67714;52.546;13.422;2023-02-15T06:20:54;3.1;98.8
78076;DHT22;67714;52.546;13.422;2023-02-15T06:22:56;3.1;98.6
78076;DHT22;67714;52.546;13.422;2023-02-15T06:24:57;3.1;98.5
78076;DHT22;67714;52.546;13.422;2023-02-15T06:26:58;3.1;97.9
78076;DHT22;67714;52.546;13.422;2023-02-15T06:28:59;3.1;98.1
78076;DHT22;67714;52.546;13.422;2023-02-15T06:31:01;3.1;98.4
78076;DHT22;67714;52.546;13.422;2023-02-15T06:33:02;3.1;98.8
78076;DHT22;67714;52.546;13.422;2023-02-15T06:35:03;3.1;98.8
78076;DHT22;67714;52.546;13.422;2023-02-15T06:37:05;3.2;98.6
78076;DHT22;67714;52.546;13.422;2023-02-15T06:39:06;3.2;98.4
78076;DHT22;67714;52.546;13.422;2023-02-15T06:41:07;3.2;98.5
78076;DHT22;67714;52.546;13.422;2023-02-15T06:43:09;3.2;98.6
78076;DHT22;67714;52.546;13.422;2023-02-15T06:45:11;3.3;98.3
78076;DHT22;67714;52.546;13.422;2023-02-15T06:47:12;3.3;97.9
78076;DHT22;67714;52.546;13.422;2023-02-15T06:51:44;3.3;97.9
78076;DHT22;67714;52.546;13.422;2023-02-15T06:53:45;3.4;97.9
78076;DHT22;67714;52.546;13.422;2023-02-15T06:55:46;3.4;97.8
78076;DHT22;67714;52.546;13.422;2023-02-15T06:57:47;3.4;97.6
78076;DHT22;67714;52.546;13.422;2023-02-15T06:59:49;3.4;97.7
78076;DHT22;67714;52.546;13.422;2023-02-15T07:01:50;3.4;98
78076;DHT22;67714;52.546;13.422;2023-02-15T07:03:51;3.5;97.9
78076;DHT22;67714;52.546;13.422;2023-02-15T07:05:54;3.5;97
78076;DHT22;67714;52.546;13.422;2023-02-15T07:07:55;3.5;97.1
78076;DHT22;67714;52.546;13.422;2023-02-15T07:09:56;3.6;97.3
78076;DHT22;67714;52.546;13.422;2023-02-15T07:11:58;3.6;96.8
78076;DHT22;67714;52.546;13.422;2023-02-15T07:13:59;3.6;96.7
78076;DHT22;67714;52.546;13.422;2023-02-15T07:16:00;3.6;96.7
78076;DHT22;67714;52.546;13.422;2023-02-15T07:18:03;3.6;96.7
78076;DHT22;67714;52.546;13.422;2023-02-15T07:20:06;3.6;96.6
78076;DHT22;67714;52.546;13.422;2023-02-15T07:22:08;3.6;96.4
78076;DHT22;67714;52.546;13.422;2023-02-15T07:24:09;3.7;96.3
78076;DHT22;67714;52.546;13.422;2023-02-15T07:26:11;3.7;96.3
78076;DHT22;67714;52.546;13.422;2023-02-15T07:28:12;3.7;96.4
78076;DHT22;67714;52.546;13.422;2023-02-15T07:30:16;3.7;96.2
78076;DHT22;67714;52.546;13.422;2023-02-15T07:32:17;3.8;96.2
78076;DHT22;67714;52.546;13.422;2023-02-15T07:34:19;3.8;96.2
78076;DHT22;67714;52.546;13.422;2023-02-15T07:36:20;3.8;96.2
78076;DHT22;67714;52.546;13.422;2023-02-15T07:38:21;3.8;96.3
78076;DHT22;67714;52.546;13.422;2023-02-15T07:40:23;3.9;96.3
78076;DHT22;67714;52.546;13.422;2023-02-15T07:42:24;3.9;96.2
78076;DHT22;67714;52.546;13.422;2023-02-15T07:44:26;3.9;95.9
78076;DHT22;67714;52.546;13.422;2023-02-15T07:46:27;4;95.9
78076;DHT22;67714;52.546;13.422;2023-02-15T07:48:28;4;96.2
78076;DHT22;67714;52.546;13.422;2023-02-15T07:50:29;4.1;96
78076;DHT22;67714;52.546;13.422;2023-02-15T07:52:31;4.1;95.5
78076;DHT22;67714;52.546;13.422;2023-02-15T07:54:32;4.1;95.1
78076;DHT22;67714;52.546;13.422;2023-02-15T07:56:36;4.1;95.2
78076;DHT22;67714;52.546;13.422;2023-02-15T07:58:37;4.2;95.3
78076;DHT22;67714;52.546;13.422;2023-02-15T08:00:39;4.2;94.9
78076;DHT22;67714;52.546;13.422;2023-02-15T08:02:40;4.3;94.7
78076;DHT22;67714;52.546;13.422;2023-02-15T08:04:41;4.3;94.1
78076;DHT22;67714;52.546;13.422;2023-02-15T08:06:43;4.3;93.6
78076;DHT22;67714;52.546;13.422;2023-02-15T08:08:45;4.3;93.7
78076;DHT22;67714;52.546;13.422;2023-02-15T08:10:46;4.3;94.1
78076;DHT22;67714;52.546;13.422;2023-02-15T08:12:47;4.3;94.2
78076;DHT22;67714;52.546;13.422;2023-02-15T08:14:49;4.4;93.7
78076;DHT22;67714;52.546;13.422;2023-02-15T08:16:51;4.4;93.5
78076;DHT22;67714;52.546;13.422;2023-02-15T08:18:53;4.4;93.8
78076;DHT22;67714;52.546;13.422;2023-02-15T08:20:54;4.5;94.2
78076;DHT22;67714;52.546;13.422;2023-02-15T08:22:55;4.6;93.7
78076;DHT22;67714;52.546;13.422;2023-02-15T08:24:56;4.6;92.9
78076;DHT22;67714;52.546;13.422;2023-02-15T08:26:58;4.7;93.3
78076;DHT22;67714;52.546;13.422;2023-02-15T08:29:00;4.7;92.6
78076;DHT22;67714;52.546;13.422;2023-02-15T08:31:05;4.7;91.9
78076;DHT22;67714;52.546;13.422;2023-02-15T08:33:07;4.6;92
78076;DHT22;67714;52.546;13.422;2023-02-15T08:35:09;4.6;92.3
78076;DHT22;67714;52.546;13.422;2023-02-15T08:37:10;4.6;92.5
78076;DHT22;67714;52.546;13.422;2023-02-15T08:39:13;4.8;92.4
78076;DHT22;67714;52.546;13.422;2023-02-15T08:41:16;4.8;91.2
78076;DHT22;67714;52.546;13.422;2023-02-15T08:43:19;4.8;91.1
78076;DHT22;67714;52.546;13.422;2023-02-15T08:45:20;4.8;91.1
78076;DHT22;67714;52.546;13.422;2023-02-15T08:47:21;4.9;91
78076;DHT22;67714;52.546;13.422;2023-02-15T08:49:22;4.9;90.8
78076;DHT22;67714;52.546;13.422;2023-02-15T08:51:26;4.9;91.4
78076;DHT22;67714;52.546;13.422;2023-02-15T08:53:29;5;90.9
78076;DHT22;67714;52.546;13.422;2023-02-15T08:55:31;5;91.3
78076;DHT22;67714;52.546;13.422;2023-02-15T08:57:32;5.1;91.4
78076;DHT22;67714;52.546;13.422;2023-02-15T08:59:34;5.2;90.8
78076;DHT22;67714;52.546;13.422;2023-02-15T09:01:35;5.3;90.6
78076;DHT22;67714;52.546;13.422;2023-02-15T09:03:36;5.4;89.5
78076;DHT22;67714;52.546;13.422;2023-02-15T09:05:37;5.5;89.4
78076;DHT22;67714;52.546;13.422;2023-02-15T09:07:39;5.5;89.2
78076;DHT22;67714;52.546;13.422;2023-02-15T09:09:40;5.6;88.8
78076;DHT22;67714;52.546;13.422;2023-02-15T09:11:43;5.7;88.2
78076;DHT22;67714;52.546;13.422;2023-02-15T09:13:44;5.7;88.7
78076;DHT22;67714;52.546;13.422;2023-02-15T09:15:45;5.8;88.9
78076;DHT22;67714;52.546;13.422;2023-02-15T09:17:47;5.8;88.8
78076;DHT22;67714;52.546;13.422;2023-02-15T09:19:48;5.9;87.4
78076;DHT22;67714;52.546;13.422;2023-02-15T09:21:50;5.9;87.8
78076;DHT22;67714;52.546;13.422;2023-02-15T09:23:56;6;87.8
78076;DHT22;67714;52.546;13.422;2023-02-15T09:26:01;6.1;86.3
78076;DHT22;67714;52.546;13.422;2023-02-15T09:28:03;6;86.5
78076;DHT22;67714;52.546;13.422;2023-02-15T09:30:04;6;86.9
78076;DHT22;67714;52.546;13.422;2023-02-15T09:32:06;6;87.5
78076;DHT22;67714;52.546;13.422;2023-02-15T09:34:07;6.1;87.4
78076;DHT22;67714;52.546;13.422;2023-02-15T09:36:14;6.2;87.6
78076;DHT22;67714;52.546;13.422;2023-02-15T09:38:16;6.3;86.1
78076;DHT22;67714;52.546;13.422;2023-02-15T09:40:17;6.4;86.6
78076;DHT22;67714;52.546;13.422;2023-02-15T09:42:31;6.4;86.2
78076;DHT22;67714;52.546;13.422;2023-02-15T09:44:48;6.4;85.1
78076;DHT22;67714;52.546;13.422;2023-02-15T09:47:00;6.4;85
78076;DHT22;67714;52.546;13.422;2023-02-15T09:49:11;6.3;85.3
78076;DHT22;67714;52.546;13.422;2023-02-15T09:51:22;6.3;86.2
78076;DHT22;67714;52.546;13.422;2023-02-15T09:53:32;6.4;86.1
78076;DHT22;67714;52.546;13.422;2023-02-15T09:55:46;6.4;86.3
78076;DHT22;67714;52.546;13.422;2023-02-15T09:57:53;6.5;85.2
78076;DHT22;67714;52.546;13.422;2023-02-15T10:00:03;6.5;84.8
78076;DHT22;67714;52.546;13.422;2023-02-15T10:02:14;6.5;84.8
78076;DHT22;67714;52.546;13.422;2023-02-15T10:04:28;6.5;84.8
78076;DHT22;67714;52.546;13.422;2023-02-15T10:06:36;6.5;84.6
78076;DHT22;67714;52.546;13.422;2023-02-15T10:08:45;6.4;85.1
78076;DHT22;67714;52.546;13.422;2023-02-15T10:10:57;6.4;84.8
78076;DHT22;67714;52.546;13.422;2023-02-15T10:13:11;6.3;84.5
78076;DHT22;67714;52.546;13.422;2023-02-15T10:15:23;6.2;84.9
78076;DHT22;67714;52.546;13.422;2023-02-15T10:17:35;6.1;85.3
78076;DHT22;67714;52.546;13.422;2023-02-15T10:19:44;5.9;85.8
78076;DHT22;67714;52.546;13.422;2023-02-15T10:21:55;5.8;86.1
78076;DHT22;67714;52.546;13.422;2023-02-15T10:24:08;5.7;87.2
78076;DHT22;67714;52.546;13.422;2023-02-15T10:26:17;5.6;87.5
78076;DHT22;67714;52.546;13.422;2023-02-15T10:28:23;5.6;87.7
78076;DHT22;67714;52.546;13.422;2023-02-15T10:30:31;5.5;87.9
78076;DHT22;67714;52.546;13.422;2023-02-15T10:32:39;5.5;88.6
78076;DHT22;67714;52.546;13.422;2023-02-15T10:34:50;5.5;88.8
78076;DHT22;67714;52.546;13.422;2023-02-15T10:36:59;5.5;89.1
78076;DHT22;67714;52.546;13.422;2023-02-15T10:39:06;5.5;89.3
78076;DHT22;67714;52.546;13.422;2023-02-15T10:41:18;5.5;89.5
78076;DHT22;67714;52.546;13.422;2023-02-15T10:43:32;5.5;89.6
78076;DHT22;67714;52.546;13.422;2023-02-15T10:45:40;5.6;89.6
78076;DHT22;67714;52.546;13.422;2023-02-15T10:47:53;5.6;89.5
78076;DHT22;67714;52.546;13.422;2023-02-15T10:50:22;5.6;89.4
78076;DHT22;67714;52.546;13.422;2023-02-15T10:52:32;5.7;89.2
78076;DHT22;67714;52.546;13.422;2023-02-15T10:54:41;5.7;89
78076;DHT22;67714;52.546;13.422;2023-02-15T10:56:49;5.7;89.1
78076;DHT22;67714;52.546;13.422;2023-02-15T10:59:03;5.8;88.9
78076;DHT22;67714;52.546;13.422;2023-02-15T11:01:13;5.8;88.7
78076;DHT22;67714;52.546;13.422;2023-02-15T11:03:21;5.8;88.4
78076;DHT22;67714;52.546;13.422;2023-02-15T11:05:35;5.8;88.7
78076;DHT22;67714;52.546;13.422;2023-02-15T11:07:40;5.8;89
78076;DHT22;67714;52.546;13.422;2023-02-15T11:09:46;5.9;88.8
78076;DHT22;67714;52.546;13.422;2023-02-15T11:11:50;5.9;88.5
78076;DHT22;67714;52.546;13.422;2023-02-15T11:13:56;5.9;88.5
78076;DHT22;67714;52.546;13.422;2023-02-15T11:16:01;5.9;88.6
78076;DHT22;67714;52.546;13.422;2023-02-15T11:18:08;5.9;88.7
78076;DHT22;67714;52.546;13.422;2023-02-15T11:20:17;6;88.6
78076;DHT22;67714;52.546;13.422;2023-02-15T11:22:21;6.1;87.8
78076;DHT22;67714;52.546;13.422;2023-02-15T11:24:25;6.1;87.9
78076;DHT22;67714;52.546;13.422;2023-02-15T11:26:31;6.2;87.5
78076;DHT22;67714;52.546;13.422;2023-02-15T11:28:37;6.2;87.7
78076;DHT22;67714;52.546;13.422;2023-02-15T11:30:43;6.2;87.7
78076;DHT22;67714;52.546;13.422;2023-02-15T11:32:46;6.3;87.4
78076;DHT22;67714;52.546;13.422;2023-02-15T11:34:50;6.3;87.4
78076;DHT22;67714;52.546;13.422;2023-02-15T11:36:55;6.3;87.3
78076;DHT22;67714;52.546;13.422;2023-02-15T11:39:02;6.3;87.5
78076;DHT22;67714;52.546;13.422;2023-02-15T11:41:08;6.3;87.9
78076;DHT22;67714;52.546;13.422;2023-02-15T11:43:13;6.3;88
78076;DHT22;67714;52.546;13.422;2023-02-15T11:45:21;6.4;87.8
78076;DHT22;67714;52.546;13.422;2023-02-15T11:47:23;6.4;87.6
78076;DHT22;67714;52.546;13.422;2023-02-15T11:49:27;6.4;87.6
78076;DHT22;67714;52.546;13.422;2023-02-15T11:51:29;6.4;87.8
78076;DHT22;67714;52.546;13.422;2023-02-15T11:53:32;6.4;88
78076;DHT22;67714;52.546;13.422;2023-02-15T11:55:35;6.4;87.8
78076;DHT22;67714;52.546;13.422;2023-02-15T11:57:39;6.5;87.8
78076;DHT22;67714;52.546;13.422;2023-02-15T11:59:46;6.5;87.7
78076;DHT22;67714;52.546;13.422;2023-02-15T12:01:50;6.5;87.5
78076;DHT22;67714;52.546;13.422;2023-02-15T12:03:52;6.5;87.5
78076;DHT22;67714;52.546;13.422;2023-02-15T12:05:58;6.6;87.5
78076;DHT22;67714;52.546;13.422;2023-02-15T12:08:09;6.6;87.5
78076;DHT22;67714;52.546;13.422;2023-02-15T12:10:17;6.6;87.4
78076;DHT22;67714;52.546;13.422;2023-02-15T12:12:22;6.7;87.3
78076;DHT22;67714;52.546;13.422;2023-02-15T12:14:23;6.7;87.4
78076;DHT22;67714;52.546;13.422;2023-02-15T12:16:26;6.7;87.3
78076;DHT22;67714;52.546;13.422;2023-02-15T12:18:34;6.8;87.1
78076;DHT22;67714;52.546;13.422;2023-02-15T12:20:37;6.9;86.7
78076;DHT22;67714;52.546;13.422;2023-02-15T12:22:41;6.9;86.3
78076;DHT22;67714;52.546;13.422;2023-02-15T12:24:47;7;86.2
78076;DHT22;67714;52.546;13.422;2023-02-15T12:26:58;7;86.2
78076;DHT22;67714;52.546;13.422;2023-02-15T12:29:06;7;86.3
